Terminal Aerodrome Forecast
Issued by NWS

Home | Current Version | Previous Version | Graphics & Text | Print | Product List | Glossary On
Versions: 1 2 3 4 5 6 7 8 9 10 11 12 13 14
000
FTUS43 KGRB 180500
TAFCWA
TAF
KCWA 180520Z 1806/1906 30006KT P6SM OVC020
     FM180900 31005KT P6SM SCT250
     FM181100 31003KT 3SM BR SCT250
      TEMPO 1811/1813 1SM BR SCT004
     FM181500 35006KT P6SM SCT035 BKN110
     FM182000 03008KT P6SM SCT060 BKN100
     FM190100 10005KT P6SM SCT120
      AMD LTD TO CLD VIS AND WIND TIL 181200=

USA.gov is the U.S. government's official web portal to all federal, state and local government web resources and services.